createdAt,value
2023-05-16T00:01:48.289Z,95702.44
2023-05-16T00:04:15.161Z,95692.78
2023-05-16T00:06:41.927Z,95692.97
2023-05-16T00:09:08.591Z,95693.34
2023-05-16T00:11:35.253Z,95703.81
2023-05-16T00:14:02.668Z,95717.28
2023-05-16T00:16:30.373Z,95719.94
2023-05-16T00:19:01.202Z,95720.78
2023-05-16T00:21:28.255Z,95730.63
2023-05-16T00:23:54.999Z,95726.72
2023-05-16T00:26:22.332Z,95737.19
2023-05-16T00:28:49.204Z,95737.72
2023-05-16T00:31:16.023Z,95741.63
2023-05-16T00:33:42.743Z,95732.38
2023-05-16T00:36:09.674Z,95725.28
2023-05-16T00:38:37.389Z,95711.16
2023-05-16T00:41:04.565Z,95708.16
2023-05-16T00:43:31.296Z,95696.34
2023-05-16T00:46:01.190Z,95684.53
2023-05-16T00:48:28.025Z,95681.13
2023-05-16T00:50:54.787Z,95678.97
2023-05-16T00:53:21.934Z,95676.13
2023-05-16T00:55:48.746Z,95665.16
2023-05-16T00:58:16.448Z,95660.28
2023-05-16T01:00:43.192Z,95659.47
2023-05-16T01:03:12.006Z,95660.28
2023-05-16T01:05:38.871Z,95657.63
2023-05-16T01:08:05.704Z,95652.28
2023-05-16T01:11:12.771Z,95643.31
2023-05-16T01:17:34.159Z,95634.03
2023-05-16T01:20:06.977Z,95633.22
2023-05-16T01:22:47.720Z,95632.84
2023-05-16T01:25:48.129Z,95637.00
2023-05-16T01:28:17.661Z,95641.28
2023-05-16T01:30:45.038Z,95650.59
2023-05-16T01:33:12.020Z,95658.22
2023-05-16T01:35:54.483Z,95666.84
2023-05-16T01:38:36.713Z,95673.88
2023-05-16T01:41:21.933Z,95660.47
2023-05-16T01:43:49.494Z,95652.00
2023-05-16T01:46:25.466Z,95653.03
2023-05-16T01:49:01.784Z,95642.38
2023-05-16T01:51:33.415Z,95632.75
2023-05-16T01:54:06.584Z,95620.81
2023-05-16T01:56:34.044Z,95627.59
2023-05-16T01:59:02.363Z,95612.94
2023-05-16T02:01:30.619Z,95611.22
2023-05-16T02:03:58.468Z,95606.56
2023-05-16T02:06:26.043Z,95593.88
2023-05-16T02:08:52.744Z,95609.66
2023-05-16T02:11:19.407Z,95611.22
2023-05-16T02:13:46.178Z,95601.75
2023-05-16T02:16:12.881Z,95584.59
2023-05-16T02:18:39.582Z,95577.28
2023-05-16T02:21:06.316Z,95552.22
2023-05-16T02:23:32.943Z,95558.81
2023-05-16T02:25:59.606Z,95560.13
2023-05-16T02:28:26.248Z,95586.09
2023-05-16T02:30:57.683Z,95577.91
2023-05-16T02:33:27.010Z,95558.09
2023-05-16T02:35:54.370Z,95549.50
2023-05-16T02:38:21.441Z,95542.31
2023-05-16T02:40:48.695Z,95532.50
2023-05-16T02:43:15.778Z,95524.53
2023-05-16T02:45:42.734Z,95527.84
2023-05-16T02:48:09.593Z,95536.09
2023-05-16T02:50:37.699Z,95541.44
2023-05-16T02:53:04.682Z,95538.59
2023-05-16T02:55:31.438Z,95541.69
2023-05-16T02:57:58.083Z,95553.38
2023-05-16T03:00:24.776Z,95546.00
2023-05-16T03:02:51.462Z,95552.19
2023-05-16T03:05:18.558Z,95549.22
2023-05-16T03:07:45.489Z,95555.38
2023-05-16T03:10:12.280Z,95565.00
2023-05-16T03:12:38.975Z,95563.16
2023-05-16T03:15:06.377Z,95573.47
2023-05-16T03:17:33.027Z,95575.94
2023-05-16T03:19:59.968Z,95576.75
2023-05-16T03:22:26.652Z,95572.63
2023-05-16T03:24:53.349Z,95577.56
2023-05-16T03:27:20.080Z,95579.22
2023-05-16T03:29:46.710Z,95593.38
2023-05-16T03:32:13.521Z,95585.41
2023-05-16T03:34:40.293Z,95562.91
2023-05-16T03:37:07.027Z,95574.84
2023-05-16T03:39:33.711Z,95583.47
2023-05-16T03:42:00.464Z,95588.41
2023-05-16T03:44:27.065Z,95601.09
2023-05-16T03:46:54.353Z,95600.72
2023-05-16T03:49:23.893Z,95591.75
2023-05-16T03:51:50.530Z,95588.25
2023-05-16T03:54:17.493Z,95574.78
2023-05-16T03:56:44.329Z,95579.91
2023-05-16T03:59:10.957Z,95556.56
2023-05-16T04:01:37.612Z,95557.41
2023-05-16T04:04:04.577Z,95565.22
2023-05-16T04:06:32.062Z,95563.19
2023-05-16T04:08:58.743Z,95566.50
2023-05-16T04:11:26.607Z,95564.66
2023-05-16T04:13:54.283Z,95564.03
2023-05-16T04:16:21.258Z,95562.38
2023-05-16T04:18:48.033Z,95568.16
2023-05-16T04:21:15.484Z,95565.31
2023-05-16T04:23:42.178Z,95572.47
2023-05-16T04:26:09.204Z,95575.13
2023-05-16T04:28:36.091Z,95585.78
2023-05-16T04:31:03.261Z,95584.59
2023-05-16T04:33:30.056Z,95582.94
2023-05-16T04:35:58.129Z,95577.63
2023-05-16T04:38:24.875Z,95586.44
2023-05-16T04:40:51.921Z,95582.56
2023-05-16T04:43:19.225Z,95570.06
2023-05-16T04:45:47.243Z,95574.78
2023-05-16T04:48:13.836Z,95571.38
2023-05-16T04:50:40.476Z,95575.88
2023-05-16T04:53:07.272Z,95574.03
2023-05-16T04:55:33.917Z,95567.97
2023-05-16T04:58:00.989Z,95571.25
2023-05-16T05:00:27.864Z,95573.13
2023-05-16T05:02:54.781Z,95571.91
2023-05-16T05:05:21.910Z,95578.63
2023-05-16T05:07:48.723Z,95575.31
2023-05-16T05:10:15.590Z,95577.44
2023-05-16T05:12:42.247Z,95578.81
2023-05-16T05:15:09.137Z,95576.59
2023-05-16T05:17:36.102Z,95585.06
2023-05-16T05:20:06.919Z,95581.91
2023-05-16T05:22:33.837Z,95584.66
2023-05-16T05:25:00.963Z,95579.72
2023-05-16T05:27:27.831Z,95577.25
2023-05-16T05:29:54.554Z,95563.38
2023-05-16T05:32:21.191Z,95571.34
2023-05-16T05:34:47.836Z,95565.50
2023-05-16T05:37:14.650Z,95571.25
2023-05-16T05:39:41.356Z,95582.94
2023-05-16T05:42:08.113Z,95572.38
2023-05-16T05:44:34.982Z,95581.19
2023-05-16T05:47:01.635Z,95575.66
2023-05-16T05:49:28.544Z,95576.94
2023-05-16T05:51:55.453Z,95581.06
2023-05-16T05:54:22.435Z,95585.59
2023-05-16T05:56:49.116Z,95584.41
2023-05-16T05:59:15.835Z,95600.38
2023-05-16T06:01:44.227Z,95600.00
2023-05-16T06:04:11.356Z,95599.81
2023-05-16T06:06:38.452Z,95601.28
2023-05-16T06:09:05.089Z,95596.56
2023-05-16T06:11:32.015Z,95593.91
2023-05-16T06:13:58.770Z,95590.25
2023-05-16T06:16:26.459Z,95593.91
2023-05-16T06:18:53.135Z,95591.25
2023-05-16T06:21:19.828Z,95591.91
2023-05-16T06:23:46.422Z,95596.84
2023-05-16T06:26:13.085Z,95601.81
2023-05-16T06:28:39.728Z,95605.13
2023-05-16T06:31:06.403Z,95614.97
2023-05-16T06:33:33.141Z,95624.97
2023-05-16T06:36:00.585Z,95632.59
2023-05-16T06:38:27.320Z,95647.56
2023-05-16T06:40:53.991Z,95662.38
2023-05-16T06:43:20.697Z,95664.66
2023-05-16T06:45:47.461Z,95676.34
2023-05-16T06:48:15.754Z,95679.03
2023-05-16T06:50:42.521Z,95682.50
2023-05-16T06:53:09.294Z,95687.66
2023-05-16T06:55:36.060Z,95691.97
2023-05-16T06:58:02.812Z,95694.63
2023-05-16T07:00:29.651Z,95690.97
2023-05-16T07:02:56.544Z,95688.13
2023-05-16T07:05:23.344Z,95685.91
2023-05-16T07:07:50.089Z,95692.25
2023-05-16T07:10:16.853Z,95688.72
2023-05-16T07:12:43.647Z,95690.41
2023-05-16T07:15:11.031Z,95679.72
2023-05-16T07:17:37.819Z,95673.59
2023-05-16T07:20:05.617Z,95665.59
2023-05-16T07:22:32.597Z,95654.16
2023-05-16T07:25:01.424Z,95653.72
2023-05-16T07:27:28.574Z,95657.22
2023-05-16T07:29:55.255Z,95644.25
2023-05-16T07:32:21.992Z,95639.34
2023-05-16T07:34:48.738Z,95643.25
2023-05-16T07:37:16.672Z,95634.88
2023-05-16T07:39:43.343Z,95629.53
2023-05-16T07:42:10.276Z,95605.81
2023-05-16T07:44:37.020Z,95606.44
2023-05-16T07:47:03.752Z,95601.09
2023-05-16T07:49:30.501Z,95590.69
2023-05-16T07:51:57.227Z,95598.50
2023-05-16T07:54:23.856Z,95603.13
2023-05-16T07:56:50.637Z,95610.56
2023-05-16T07:59:17.373Z,95606.47
2023-05-16T08:01:46.748Z,95603.44
2023-05-16T08:04:13.508Z,95599.94
2023-05-16T08:06:40.296Z,95593.03
2023-05-16T08:09:07.067Z,95597.22
2023-05-16T08:11:34.043Z,95592.34
2023-05-16T08:14:00.866Z,95575.13
2023-05-16T08:16:27.619Z,95576.75
2023-05-16T08:18:54.426Z,95579.88
2023-05-16T08:21:21.323Z,95569.44
2023-05-16T08:23:48.104Z,95566.44
2023-05-16T08:26:14.853Z,95564.84
2023-05-16T08:28:41.661Z,95573.50
2023-05-16T08:31:08.538Z,95575.56
2023-05-16T08:33:35.894Z,95566.53
2023-05-16T08:36:03.213Z,95564.06
2023-05-16T08:38:30.164Z,95569.22
2023-05-16T08:40:57.147Z,95571.88
2023-05-16T08:43:24.209Z,95577.66
2023-05-16T08:45:51.172Z,95591.47
2023-05-16T08:48:23.320Z,95599.59
2023-05-16T08:50:50.351Z,95617.28
2023-05-16T08:53:22.647Z,95629.56
2023-05-16T08:55:51.619Z,95623.16
2023-05-16T08:58:19.433Z,95626.63
2023-05-16T09:00:47.194Z,95627.44
2023-05-16T09:03:14.346Z,95622.56
2023-05-16T09:05:41.686Z,95599.19
2023-05-16T09:08:08.567Z,95578.91
2023-05-16T09:10:35.508Z,95569.31
2023-05-16T09:13:02.414Z,95580.66
2023-05-16T09:15:33.757Z,95575.31
2023-05-16T09:18:02.429Z,95578.22
2023-05-16T09:20:29.296Z,95579.53
2023-05-16T09:22:58.536Z,95571.88
2023-05-16T09:25:32.118Z,95577.28
2023-05-16T09:28:02.440Z,95584.09
2023-05-16T09:30:32.211Z,95582.88
2023-05-16T09:32:59.524Z,95572.00
2023-05-16T09:35:43.171Z,95587.53
2023-05-16T09:38:18.073Z,95592.94
2023-05-16T09:40:46.219Z,95585.94
2023-05-16T09:43:17.388Z,95595.44
2023-05-16T09:45:49.149Z,95606.09
2023-05-16T09:48:17.367Z,95611.44
2023-05-16T09:50:53.266Z,95616.31
2023-05-16T09:53:33.625Z,95620.41
2023-05-16T09:56:02.582Z,95625.88
2023-05-16T09:58:34.977Z,95620.09
2023-05-16T10:01:02.938Z,95630.97
2023-05-16T10:03:30.410Z,95629.72
2023-05-16T10:05:57.638Z,95634.22
2023-05-16T10:08:26.357Z,95631.13
2023-05-16T10:10:56.594Z,95632.69
2023-05-16T10:13:29.143Z,95635.19
2023-05-16T10:15:57.705Z,95623.06
2023-05-16T10:18:30.460Z,95607.84
2023-05-16T10:21:02.555Z,95611.94
2023-05-16T10:23:30.625Z,95602.00
2023-05-16T10:26:01.179Z,95597.56
2023-05-16T10:28:29.507Z,95596.78
2023-05-16T10:30:56.717Z,95584.88
2023-05-16T10:33:23.672Z,95588.25
2023-05-16T10:35:51.253Z,95570.56
2023-05-16T10:38:19.433Z,95559.69
2023-05-16T10:40:48.716Z,95562.97
2023-05-16T10:43:24.862Z,95576.31
2023-05-16T10:45:59.938Z,95575.84
2023-05-16T10:48:35.268Z,95549.56
2023-05-16T10:51:03.847Z,95532.84
2023-05-16T10:53:33.392Z,95526.09
2023-05-16T10:56:00.215Z,95523.19
2023-05-16T10:58:39.122Z,95514.56
2023-05-16T11:01:19.077Z,95509.72
2023-05-16T11:03:58.333Z,95514.25
2023-05-16T11:06:43.303Z,95521.25
2023-05-16T11:09:16.138Z,95533.34
2023-05-16T11:11:57.987Z,95510.13
2023-05-16T11:14:45.375Z,95508.47
2023-05-16T11:17:20.884Z,95506.47
2023-05-16T11:19:52.850Z,95506.47
2023-05-16T11:22:19.755Z,95513.47
2023-05-16T11:24:52.398Z,95493.34
2023-05-16T11:27:25.509Z,95489.06
2023-05-16T11:29:53.651Z,95481.84
2023-05-16T11:32:22.529Z,95482.06
2023-05-16T11:34:51.276Z,95484.16
2023-05-16T11:37:20.239Z,95478.66
2023-05-16T11:39:47.696Z,95483.13
2023-05-16T11:42:14.918Z,95489.50
2023-05-16T11:44:41.854Z,95492.56
2023-05-16T11:47:08.876Z,95502.03
2023-05-16T11:49:36.213Z,95498.31
2023-05-16T11:52:05.796Z,95490.91
2023-05-16T11:54:34.693Z,95496.56
2023-05-16T11:57:02.328Z,95484.47
2023-05-16T11:59:29.431Z,95486.78
2023-05-16T12:01:56.314Z,95469.91
2023-05-16T12:04:23.674Z,95475.59
2023-05-16T12:07:00.830Z,95481.75
2023-05-16T12:09:27.796Z,95476.63
2023-05-16T12:11:54.754Z,95469.06
2023-05-16T12:14:22.522Z,95466.38
2023-05-16T12:16:51.205Z,95468.06
2023-05-16T12:19:18.570Z,95454.56
2023-05-16T12:21:45.539Z,95444.91
2023-05-16T12:24:15.867Z,95443.28
2023-05-16T12:26:43.630Z,95448.84
2023-05-16T12:29:11.739Z,95460.81
2023-05-16T12:31:41.957Z,95450.88
2023-05-16T12:34:21.536Z,95451.28
2023-05-16T12:36:53.203Z,95451.25
2023-05-16T12:39:20.614Z,95455.56
2023-05-16T12:41:47.566Z,95449.22
2023-05-16T12:44:19.822Z,95442.81
2023-05-16T12:46:51.982Z,95435.41
2023-05-16T12:49:22.988Z,95428.84
2023-05-16T12:51:55.854Z,95421.47
2023-05-16T12:54:23.323Z,95411.88
2023-05-16T12:56:50.373Z,95406.94
2023-05-16T12:59:17.519Z,95409.06
2023-05-16T13:01:46.540Z,95417.47
2023-05-16T13:04:18.508Z,95412.34
2023-05-16T13:06:58.685Z,95417.72
2023-05-16T13:09:31.169Z,95415.84
2023-05-16T13:11:59.841Z,95420.56
2023-05-16T13:14:27.198Z,95415.81
2023-05-16T13:16:54.015Z,95408.41
2023-05-16T13:19:23.255Z,95413.13
2023-05-16T13:21:50.177Z,95401.91
2023-05-16T13:24:17.016Z,95404.81
2023-05-16T13:26:44.153Z,95406.66
2023-05-16T13:29:12.432Z,95397.19
2023-05-16T13:31:39.429Z,95404.94
2023-05-16T13:34:07.039Z,95403.69
2023-05-16T13:36:49.408Z,95406.56
2023-05-16T13:39:20.553Z,95399.97
2023-05-16T13:41:49.101Z,95391.09
2023-05-16T13:44:16.508Z,95393.19
2023-05-16T13:46:43.457Z,95380.69
2023-05-16T13:49:10.258Z,95390.09
2023-05-16T13:51:37.092Z,95393.63
2023-05-16T13:54:04.004Z,95387.25
2023-05-16T13:56:30.894Z,95380.09
2023-05-16T13:59:02.134Z,95374.97
2023-05-16T14:01:31.648Z,95365.56
2023-05-16T14:03:58.737Z,95356.28
2023-05-16T14:06:25.697Z,95350.34
2023-05-16T14:08:52.498Z,95344.34
2023-05-16T14:11:20.040Z,95335.94
2023-05-16T14:13:46.936Z,95326.91
2023-05-16T14:16:13.856Z,95324.63
2023-05-16T14:18:40.786Z,95309.00
2023-05-16T14:21:07.751Z,95309.22
2023-05-16T14:23:34.795Z,95315.34
2023-05-16T14:26:01.906Z,95324.34
2023-05-16T14:28:29.032Z,95324.16
2023-05-16T14:30:55.916Z,95327.16
2023-05-16T14:33:22.892Z,95327.13
2023-05-16T14:35:50.359Z,95343.94
2023-05-16T14:38:17.196Z,95332.63
2023-05-16T14:40:44.056Z,95338.78
2023-05-16T14:43:11.433Z,95348.00
2023-05-16T14:45:39.417Z,95352.06
2023-05-16T14:48:08.538Z,95346.31
2023-05-16T14:50:35.555Z,95348.16
2023-05-16T14:53:02.338Z,95346.69
2023-05-16T14:55:29.507Z,95352.78
2023-05-16T14:58:00.058Z,95349.50
2023-05-16T15:00:27.745Z,95344.56
2023-05-16T15:02:54.778Z,95350.47
2023-05-16T15:05:21.907Z,95347.78
2023-05-16T15:07:48.876Z,95348.38
2023-05-16T15:10:15.762Z,95357.19
2023-05-16T15:12:43.603Z,95359.63
2023-05-16T15:15:13.042Z,95361.06
2023-05-16T15:17:42.134Z,95363.31
2023-05-16T15:20:10.700Z,95370.22
2023-05-16T15:22:39.088Z,95384.97
2023-05-16T15:25:06.427Z,95387.81
2023-05-16T15:27:33.316Z,95394.75
2023-05-16T15:30:01.126Z,95400.47
2023-05-16T15:32:27.993Z,95401.94
2023-05-16T15:34:54.816Z,95406.16
2023-05-16T15:37:21.995Z,95414.34
2023-05-16T15:39:48.878Z,95413.34
2023-05-16T15:42:15.856Z,95422.09
2023-05-16T15:44:42.738Z,95409.41
2023-05-16T15:47:10.420Z,95416.13
2023-05-16T15:49:37.337Z,95411.44
2023-05-16T15:52:05.116Z,95411.44
2023-05-16T15:54:32.043Z,95409.81
2023-05-16T15:56:58.971Z,95414.94
2023-05-16T15:59:26.065Z,95414.88
2023-05-16T16:01:53.047Z,95409.75
2023-05-16T16:04:23.224Z,95410.75
2023-05-16T16:06:50.617Z,95417.53
2023-05-16T16:09:17.776Z,95407.06
2023-05-16T16:11:44.656Z,95415.06
2023-05-16T16:14:11.498Z,95411.19
2023-05-16T16:16:40.515Z,95412.22
2023-05-16T16:19:08.284Z,95404.41
2023-05-16T16:21:36.084Z,95412.59
2023-05-16T16:24:03.138Z,95413.22
2023-05-16T16:26:31.895Z,95404.41
2023-05-16T16:28:58.918Z,95404.97
2023-05-16T16:31:25.814Z,95397.63
2023-05-16T16:33:52.834Z,95396.59
2023-05-16T16:36:19.846Z,95398.25
2023-05-16T16:38:46.709Z,95391.28
2023-05-16T16:41:15.459Z,95393.75
2023-05-16T16:43:42.365Z,95393.75
2023-05-16T16:46:09.428Z,95398.88
2023-05-16T16:48:36.685Z,95398.69
2023-05-16T16:51:03.697Z,95394.56
2023-05-16T16:53:30.554Z,95412.13
2023-05-16T16:55:57.384Z,95413.16
2023-05-16T16:58:24.183Z,95400.22
2023-05-16T17:00:51.591Z,95393.22
2023-05-16T17:03:18.447Z,95402.22
2023-05-16T17:05:45.283Z,95410.41
2023-05-16T17:08:12.328Z,95412.06
2023-05-16T17:10:39.570Z,95414.72
2023-05-16T17:13:10.457Z,95414.53
2023-05-16T17:15:38.015Z,95419.06
2023-05-16T17:18:08.452Z,95410.03
2023-05-16T17:20:36.320Z,95414.72
2023-05-16T17:23:03.557Z,95422.72
2023-05-16T17:25:30.611Z,95429.44
2023-05-16T17:27:57.610Z,95405.84
2023-05-16T17:30:24.386Z,95406.88
2023-05-16T17:32:51.768Z,95408.34
2023-05-16T17:35:18.672Z,95401.16
2023-05-16T17:37:47.594Z,95407.50
2023-05-16T17:40:17.146Z,95413.66
2023-05-16T17:42:47.667Z,95400.53
2023-05-16T17:45:16.288Z,95401.34
2023-05-16T17:47:43.614Z,95407.50
2023-05-16T17:50:11.032Z,95410.16
2023-05-16T17:52:39.914Z,95406.47
2023-05-16T17:55:10.770Z,95416.88
2023-05-16T17:57:37.664Z,95415.41
2023-05-16T18:00:05.816Z,95424.63
2023-05-16T18:02:33.128Z,95436.63
2023-05-16T18:04:59.924Z,95449.94
2023-05-16T18:07:27.178Z,95460.97
2023-05-16T18:09:54.676Z,95457.03
2023-05-16T18:12:21.643Z,95459.63
2023-05-16T18:14:48.526Z,95469.00
2023-05-16T18:17:15.338Z,95489.47
2023-05-16T18:19:42.223Z,95500.56
2023-05-16T18:22:12.082Z,95500.94
2023-05-16T18:24:39.905Z,95488.19
2023-05-16T18:27:06.799Z,95479.94
2023-05-16T18:29:33.644Z,95479.84
2023-05-16T18:32:00.460Z,95471.97
2023-05-16T18:34:27.341Z,95468.22
2023-05-16T18:36:54.129Z,95461.59
2023-05-16T18:39:21.376Z,95455.34
2023-05-16T18:41:48.514Z,95458.00
2023-05-16T18:44:18.533Z,95461.31
2023-05-16T18:46:46.590Z,95456.09
2023-05-16T18:49:13.949Z,95464.16
2023-05-16T18:51:40.910Z,95458.09
2023-05-16T18:54:07.853Z,95451.38
2023-05-16T18:56:34.868Z,95458.19
2023-05-16T18:59:01.793Z,95452.84
2023-05-16T19:01:28.869Z,95463.16
2023-05-16T19:03:56.086Z,95462.31
2023-05-16T19:06:23.258Z,95471.31
2023-05-16T19:08:50.081Z,95479.13
2023-05-16T19:11:18.124Z,95480.31
2023-05-16T19:13:45.927Z,95481.13
2023-05-16T19:16:13.131Z,95476.00
2023-05-16T19:18:40.246Z,95485.00
2023-05-16T19:21:13.514Z,95487.47
2023-05-16T19:23:40.682Z,95485.66
2023-05-16T19:26:07.462Z,95492.97
2023-05-16T19:28:34.841Z,95494.16
2023-05-16T19:31:01.638Z,95491.50
2023-05-16T19:33:28.397Z,95495.00
2023-05-16T19:35:57.801Z,95491.06
2023-05-16T19:38:25.913Z,95489.03
2023-05-16T19:40:53.482Z,95474.91
2023-05-16T19:43:20.234Z,95482.03
2023-05-16T19:45:47.067Z,95482.69
2023-05-16T19:48:13.946Z,95477.75
2023-05-16T19:50:40.952Z,95474.06
2023-05-16T19:53:07.677Z,95481.22
2023-05-16T19:55:37.980Z,95480.75
2023-05-16T19:58:05.195Z,95472.59
2023-05-16T20:00:32.051Z,95474.44
2023-05-16T20:02:58.983Z,95481.31
2023-05-16T20:05:26.136Z,95482.50
2023-05-16T20:07:54.613Z,95486.84
2023-05-16T20:10:22.208Z,95484.19
2023-05-16T20:12:49.134Z,95487.03
2023-05-16T20:15:16.403Z,95492.69
2023-05-16T20:17:43.324Z,95487.38
2023-05-16T20:20:10.785Z,95486.75
2023-05-16T20:22:41.680Z,95493.53
2023-05-16T20:25:10.527Z,95479.56
2023-05-16T20:27:37.800Z,95486.94
2023-05-16T20:30:06.727Z,95481.59
2023-05-16T20:32:34.184Z,95480.75
2023-05-16T20:35:01.364Z,95493.06
2023-05-16T20:37:28.182Z,95478.94
2023-05-16T20:39:55.152Z,95485.66
2023-05-16T20:42:22.239Z,95495.63
2023-05-16T20:44:49.117Z,95488.56
2023-05-16T20:47:17.178Z,95490.31
2023-05-16T20:49:44.541Z,95490.69
2023-05-16T20:52:11.407Z,95490.03
2023-05-16T20:54:38.277Z,95488.84
2023-05-16T20:57:05.629Z,95482.69
2023-05-16T20:59:32.562Z,95485.06
2023-05-16T21:02:00.136Z,95495.06
2023-05-16T21:04:27.010Z,95488.72
2023-05-16T21:06:53.891Z,95504.59
2023-05-16T21:09:20.891Z,95501.13
2023-05-16T21:11:47.701Z,95499.28
2023-05-16T21:14:14.572Z,95500.81
2023-05-16T21:16:41.865Z,95493.13
2023-05-16T21:19:08.929Z,95490.47
2023-05-16T21:21:35.988Z,95503.78
2023-05-16T21:24:03.805Z,95497.91
2023-05-16T21:26:30.952Z,95499.63
2023-05-16T21:28:57.742Z,95507.25
2023-05-16T21:31:24.601Z,95505.44
2023-05-16T21:33:52.492Z,95499.28
2023-05-16T21:36:20.211Z,95506.25
2023-05-16T21:38:47.442Z,95512.38
2023-05-16T21:41:14.692Z,95516.88
2023-05-16T21:43:41.542Z,95507.91
2023-05-16T21:46:08.380Z,95512.56
2023-05-16T21:48:36.053Z,95514.03
2023-05-16T21:51:03.824Z,95503.41
2023-05-16T21:53:30.588Z,95516.06
2023-05-16T21:55:57.347Z,95517.69
2023-05-16T21:58:25.432Z,95516.41
2023-05-16T22:00:52.298Z,95513.56
2023-05-16T22:03:21.271Z,95511.94
2023-05-16T22:05:48.544Z,95517.88
2023-05-16T22:08:15.552Z,95521.72
2023-05-16T22:10:42.790Z,95518.44
2023-05-16T22:13:10.006Z,95523.56
2023-05-16T22:15:36.804Z,95524.56
2023-05-16T22:18:03.744Z,95522.09
2023-05-16T22:20:30.669Z,95520.91
2023-05-16T22:22:57.732Z,95526.06
2023-05-16T22:25:24.658Z,95519.56
2023-05-16T22:27:51.403Z,95523.69
2023-05-16T22:30:18.529Z,95521.84
2023-05-16T22:32:47.031Z,95513.41
2023-05-16T22:35:14.390Z,95511.75
2023-05-16T22:37:41.202Z,95515.97
2023-05-16T22:40:09.112Z,95509.47
2023-05-16T22:42:36.014Z,95514.13
2023-05-16T22:45:03.976Z,95519.63
2023-05-16T22:47:30.893Z,95519.63
2023-05-16T22:49:57.726Z,95521.63
2023-05-16T22:52:24.876Z,95512.47
2023-05-16T22:54:51.712Z,95514.13
2023-05-16T22:57:18.535Z,95519.44
2023-05-16T22:59:45.344Z,95506.97
2023-05-16T23:02:12.147Z,95512.66
2023-05-16T23:04:39.040Z,95506.16
2023-05-16T23:07:05.938Z,95503.47
2023-05-16T23:09:32.710Z,95497.50
2023-05-16T23:11:59.517Z,95496.69
2023-05-16T23:14:26.507Z,95500.53
2023-05-16T23:16:53.308Z,95498.75
2023-05-16T23:19:20.297Z,95487.97
2023-05-16T23:21:47.155Z,95501.59
2023-05-16T23:24:13.953Z,95504.25
2023-05-16T23:26:40.778Z,95500.63
2023-05-16T23:29:08.196Z,95496.94
2023-05-16T23:31:35.013Z,95506.59
2023-05-16T23:34:02.073Z,95509.88
2023-05-16T23:36:29.008Z,95500.25
2023-05-16T23:38:55.836Z,95509.41
2023-05-16T23:41:22.632Z,95511.25
2023-05-16T23:43:49.402Z,95506.25
2023-05-16T23:46:16.159Z,95508.25
2023-05-16T23:48:43.017Z,95508.25
2023-05-16T23:51:09.998Z,95509.75
2023-05-16T23:53:36.857Z,95512.22
2023-05-16T23:56:03.732Z,95507.94
2023-05-16T23:58:30.697Z,95516.56
